^^
Datos históricos de la estación: Murcia-Puente Tocinos
Diario Informe para Septiembre 24, 2020 Unidades:  Ambas    Ingés   Métrico
Diario Semanal Mensual Anual
  Máxima: Mínima: Promedio:
Temperatura: 92.7 °F /  33.7 °C 73 °F /  22.8 °C 81.9 °F /  27.7 °C
Punto de rocio: 60.4 °F /  15.8 °C 50 °F /  10 °C 56.3 °F /  13.5 °C
Humedad: 58% 25% 43%
Velocidad viento: 15.9mph /  25.6km/h - 5mph /  8km/h
Racha viento: 31.1mph /  50.1km/h - -
Viento- - SSO
Presión: 29.9 in /  1014.0 hPa 29.8 in /  1010.4 hPa -
Precipitación: 0 in /  0.0 mm    
 
 
Tabla de datos para Septiembre 24, 2020
Hora Temperatura Punto de rocio Presión Viento Velocidad viento Racha viento Humedad Intensidad lluvia(por hora) Nubes
00:04 77.4 °F /  25.2 °C 60.1 °F /  15.6 °C 29.9in /  1012.0hPa SSO 2.9mph /  4.7km/h 5.9mph /  9.5km/h 55.4% 0in /  0.0mm
00:09 77.5 °F /  25.3 °C 59.9 °F /  15.5 °C 29.9in /  1012.2hPa SSO 3.1mph /  5km/h 6mph /  9.7km/h 54.7% 0in /  0.0mm
00:14 77.7 °F /  25.4 °C 59.7 °F /  15.4 °C 29.9in /  1012.2hPa Sur 3.2mph /  5.1km/h 6mph /  9.7km/h 54% 0in /  0.0mm
00:19 77.9 °F /  25.5 °C 59.9 °F /  15.5 °C 29.9in /  1012.2hPa SSE 3.6mph /  5.8km/h 5.9mph /  9.5km/h 54% 0in /  0.0mm
00:24 77.7 °F /  25.4 °C 59.9 °F /  15.5 °C 29.9in /  1012.2hPa SSE 3.6mph /  5.8km/h 6mph /  9.7km/h 54.4% 0in /  0.0mm
00:29 77.5 °F /  25.3 °C 59.9 °F /  15.5 °C 29.9in /  1012.2hPa SSE 3.6mph /  5.8km/h 6mph /  9.7km/h 54.6% 0in /  0.0mm
00:34 77.5 °F /  25.3 °C 59.4 °F /  15.2 °C 29.9in /  1012.2hPa SSO 3.2mph /  5.2km/h 4.6mph /  7.4km/h 53.7% 0in /  0.0mm
00:39 77.5 °F /  25.3 °C 59.4 °F /  15.2 °C 29.9in /  1012.4hPa SO 1.4mph /  2.3km/h 5mph /  8km/h 53.4% 0in /  0.0mm
00:44 77.7 °F /  25.4 °C 58.8 °F /  14.9 °C 29.9in /  1012.4hPa SO 1.6mph /  2.6km/h 5mph /  8km/h 52.2% 0in /  0.0mm
00:49 77.9 °F /  25.5 °C 58.3 °F /  14.6 °C 29.9in /  1012.4hPa SSO 2.9mph /  4.7km/h 5mph /  8km/h 51.1% 0in /  0.0mm
00:54 78.1 °F /  25.6 °C 58.5 °F /  14.7 °C 29.9in /  1012.4hPa SSO 2.8mph /  4.5km/h 5mph /  8km/h 51% 0in /  0.0mm
00:59 78.1 °F /  25.6 °C 59.5 °F /  15.3 °C 29.9in /  1012.2hPa OSO 2mph /  3.2km/h 4.3mph /  6.9km/h 52.8% 0in /  0.0mm
01:04 77.9 °F /  25.5 °C 60.4 °F /  15.8 °C 29.9in /  1012.2hPa NE 2mph /  3.2km/h 5mph /  8km/h 55% 0in /  0.0mm
01:09 77 °F /  25 °C 59.7 °F /  15.4 °C 29.9in /  1012.3hPa Este 2mph /  3.2km/h 5mph /  8km/h 55.2% 0in /  0.0mm
01:14 76.3 °F /  24.6 °C 59.7 °F /  15.4 °C 29.9in /  1012.3hPa Este 2.1mph /  3.3km/h 5mph /  8km/h 56.5% 0in /  0.0mm
01:19 75.9 °F /  24.4 °C 59.5 °F /  15.3 °C 29.9in /  1012.3hPa Este 2.4mph /  3.9km/h 3.6mph /  5.8km/h 57% 0in /  0.0mm
01:24 75.7 °F /  24.3 °C 59.4 °F /  15.2 °C 29.9in /  1012.3hPa Este 2.3mph /  3.7km/h 4mph /  6.4km/h 56.9% 0in /  0.0mm
01:29 75.9 °F /  24.4 °C 59.4 °F /  15.2 °C 29.9in /  1012.2hPa Este 1.8mph /  2.9km/h 3.6mph /  5.8km/h 56.6% 0in /  0.0mm
01:34 75.9 °F /  24.4 °C 59.2 °F /  15.1 °C 29.9in /  1012.2hPa Este 1.7mph /  2.8km/h 4mph /  6.4km/h 56.2% 0in /  0.0mm
01:39 76.1 °F /  24.5 °C 59 °F /  15 °C 29.9in /  1012.5hPa Este 1.4mph /  2.2km/h   55.4% 0in /  0.0mm
01:44 76.3 °F /  24.6 °C 58.8 °F /  14.9 °C 29.9in /  1012.5hPa Este 1.2mph /  2km/h   54.9% 0in /  0.0mm
01:49 76.3 °F /  24.6 °C 58.3 °F /  14.6 °C 29.9in /  1012.5hPa Calm   2.4mph /  3.9km/h 53.9% 0in /  0.0mm
01:54 76.5 °F /  24.7 °C 58.3 °F /  14.6 °C 29.9in /  1012.5hPa Calm   3.5mph /  5.6km/h 53.3% 0in /  0.0mm
01:59 76.6 °F /  24.8 °C 58.3 °F /  14.6 °C 29.9in /  1012.3hPa Calm   4.7mph /  7.6km/h 53.1% 0in /  0.0mm
02:04 77 °F /  25 °C 57.6 °F /  14.2 °C 29.9in /  1012.3hPa SSO 0.4mph /  0.6km/h 5.2mph /  8.4km/h 51.3% 0in /  0.0mm
02:09 77.4 °F /  25.2 °C 57.4 °F /  14.1 °C 29.9in /  1012.3hPa SSO 2.9mph /  4.6km/h 5mph /  8km/h 50.1% 0in /  0.0mm
02:14 77.5 °F /  25.3 °C 57.4 °F /  14.1 °C 29.9in /  1012.2hPa SSO 2.8mph /  4.5km/h 5mph /  8km/h 50% 0in /  0.0mm
02:19 77.7 °F /  25.4 °C 57.2 °F /  14 °C 29.9in /  1012.2hPa SSO 2.4mph /  3.9km/h 5mph /  8km/h 49.2% 0in /  0.0mm
02:22 77.7 °F /  25.4 °C 57.2 °F /  14 °C 29.9in /  1012.2hPa SSO 2.4mph /  3.8km/h 4mph /  6.4km/h 49.3% 0in /  0.0mm
02:34 77 °F /  25 °C 58.5 °F /  14.7 °C 29.9in /  1012.2hPa ESE 2mph /  3.2km/h 4.6mph /  7.4km/h 53% 0in /  0.0mm
02:39 76.6 °F /  24.8 °C 58.3 °F /  14.6 °C 29.9in /  1012.4hPa ESE 2mph /  3.2km/h 5.2mph /  8.4km/h 53% 0in /  0.0mm
02:44 76.3 °F /  24.6 °C 57.9 °F /  14.4 °C 29.9in /  1012.4hPa ESE 2.2mph /  3.5km/h 5.4mph /  8.7km/h 53% 0in /  0.0mm
02:49 75.9 °F /  24.4 °C 57.9 °F /  14.4 °C 29.9in /  1012.4hPa ESE 3.1mph /  5km/h 6mph /  9.7km/h 53.4% 0in /  0.0mm
02:54 75.9 °F /  24.4 °C 57.9 °F /  14.4 °C 29.9in /  1012.4hPa ESE 3.1mph /  5km/h 5mph /  8km/h 53.5% 0in /  0.0mm
02:59 75.7 °F /  24.3 °C 57.4 °F /  14.1 °C 29.9in /  1012.3hPa ESE 3.1mph /  5km/h 5mph /  8km/h 53% 0in /  0.0mm
03:04 75.9 °F /  24.4 °C 57.6 °F /  14.2 °C 29.9in /  1012.3hPa ESE 3mph /  4.8km/h 5mph /  8km/h 53% 0in /  0.0mm
03:09 75.9 °F /  24.4 °C 57.6 °F /  14.2 °C 29.9in /  1012.4hPa ESE 2.4mph /  3.9km/h 5mph /  8km/h 53% 0in /  0.0mm
03:14 75.9 °F /  24.4 °C 57.6 °F /  14.2 °C 29.9in /  1012.4hPa ESE 2.4mph /  3.9km/h 5mph /  8km/h 53% 0in /  0.0mm
03:19 75.9 °F /  24.4 °C 57.6 °F /  14.2 °C 29.9in /  1012.4hPa ESE 2.4mph /  3.9km/h 5mph /  8km/h 53% 0in /  0.0mm
03:24 76.1 °F /  24.5 °C 57.2 °F /  14 °C 29.9in /  1012.5hPa SE 2.4mph /  3.9km/h 5.2mph /  8.4km/h 52% 0in /  0.0mm
03:29 76.3 °F /  24.6 °C 57.2 °F /  14 °C 29.9in /  1012.5hPa SSE 2.4mph /  3.9km/h 5mph /  8km/h 51.6% 0in /  0.0mm
03:33 76.5 °F /  24.7 °C 57 °F /  13.9 °C 29.9in /  1012.5hPa Sur 2.4mph /  3.9km/h 5mph /  8km/h 51% 0in /  0.0mm
03:49 76.6 °F /  24.8 °C 57.2 °F /  14 °C 29.9in /  1012.4hPa SSO 2.4mph /  3.9km/h 4.6mph /  7.4km/h 51% 0in /  0.0mm
03:54 76.6 °F /  24.8 °C 57 °F /  13.9 °C 29.9in /  1012.4hPa SSO 2.4mph /  3.8km/h 5mph /  8km/h 50.8% 0in /  0.0mm
03:59 76.6 °F /  24.8 °C 56.7 °F /  13.7 °C 29.9in /  1012.4hPa SSO 2mph /  3.2km/h 4.6mph /  7.4km/h 50% 0in /  0.0mm
04:04 76.6 °F /  24.8 °C 56.7 °F /  13.7 °C 29.9in /  1012.4hPa SSO 2.1mph /  3.4km/h 5mph /  8km/h 50% 0in /  0.0mm
04:09 76.8 °F /  24.9 °C 56.3 °F /  13.5 °C 29.9in /  1012.4hPa SSO 2.9mph /  4.7km/h 5mph /  8km/h 49% 0in /  0.0mm
04:14 77 °F /  25 °C 56.3 °F /  13.5 °C 29.9in /  1012.4hPa Sur 2.9mph /  4.7km/h 5mph /  8km/h 49% 0in /  0.0mm
04:19 77 °F /  25 °C 56.5 °F /  13.6 °C 29.9in /  1012.4hPa Sur 3.1mph /  5km/h 5mph /  8km/h 49% 0in /  0.0mm
04:24 77 °F /  25 °C 56.5 °F /  13.6 °C 29.9in /  1012.4hPa Sur 3mph /  4.8km/h 4mph /  6.4km/h 49% 0in /  0.0mm
04:29 76.8 °F /  24.9 °C 56.3 °F /  13.5 °C 29.9in /  1012.3hPa Sur 2.4mph /  3.9km/h 4mph /  6.4km/h 49% 0in /  0.0mm
04:34 76.8 °F /  24.9 °C 56.1 °F /  13.4 °C 29.9in /  1012.3hPa Sur 2.3mph /  3.7km/h 3mph /  4.8km/h 49% 0in /  0.0mm
04:39 76.6 °F /  24.8 °C 56.1 °F /  13.4 °C 29.9in /  1012.3hPa Sur 1.8mph /  2.9km/h 3.6mph /  5.8km/h 49% 0in /  0.0mm
04:44 76.6 °F /  24.8 °C 56.3 °F /  13.5 °C 29.9in /  1012.3hPa Sur 1.7mph /  2.8km/h 4mph /  6.4km/h 49.4% 0in /  0.0mm
04:49 76.6 °F /  24.8 °C 56.7 °F /  13.7 °C 29.9in /  1012.3hPa Sur 1.4mph /  2.2km/h 2.4mph /  3.9km/h 50% 0in /  0.0mm
04:54 76.6 °F /  24.8 °C 56.5 °F /  13.6 °C 29.9in /  1012.4hPa Sur 1.4mph /  2.3km/h 3.6mph /  5.8km/h 50% 0in /  0.0mm
04:59 76.5 °F /  24.7 °C 56.3 °F /  13.5 °C 29.9in /  1012.4hPa SSE 1.8mph /  2.9km/h 4.6mph /  7.4km/h 50% 0in /  0.0mm
05:04 76.3 °F /  24.6 °C 56.3 °F /  13.5 °C 29.9in /  1012.4hPa SSO 2mph /  3.2km/h 5.2mph /  8.4km/h 50% 0in /  0.0mm
05:09 76.1 °F /  24.5 °C 56.5 °F /  13.6 °C 29.9in /  1012.4hPa Sur 3.1mph /  5km/h 6.2mph /  10km/h 50.9% 0in /  0.0mm
05:14 75.9 °F /  24.4 °C 56.5 °F /  13.6 °C 29.9in /  1012.3hPa Sur 3.2mph /  5.1km/h 6mph /  9.7km/h 51% 0in /  0.0mm
05:19 75.9 °F /  24.4 °C 56.5 °F /  13.6 °C 29.9in /  1012.3hPa Sur 3.6mph /  5.8km/h 5mph /  8km/h 51% 0in /  0.0mm
05:24 75.9 °F /  24.4 °C 56.5 °F /  13.6 °C 29.9in /  1012.3hPa Sur 3.4mph /  5.5km/h 5mph /  8km/h 51% 0in /  0.0mm
05:29 76.1 °F /  24.5 °C 56.7 °F /  13.7 °C 29.9in /  1012.3hPa Sur 2.4mph /  3.9km/h 3.6mph /  5.8km/h 51% 0in /  0.0mm
05:34 76.3 °F /  24.6 °C 56.8 °F /  13.8 °C 29.9in /  1012.3hPa Sur 2.4mph /  3.9km/h 4.7mph /  7.6km/h 51% 0in /  0.0mm
05:39 76.3 °F /  24.6 °C 56.8 °F /  13.8 °C 29.9in /  1012.3hPa Sur 2.4mph /  3.9km/h 5mph /  8km/h 51% 0in /  0.0mm
05:44 76.3 °F /  24.6 °C 56.8 °F /  13.8 °C 29.9in /  1012.2hPa SSE 2.5mph /  4.1km/h 5.2mph /  8.4km/h 51% 0in /  0.0mm
05:49 75.7 °F /  24.3 °C 56.8 °F /  13.8 °C 29.9in /  1012.2hPa SSE 3.6mph /  5.8km/h 6.2mph /  10km/h 52% 0in /  0.0mm
05:54 75.6 °F /  24.2 °C 56.7 °F /  13.7 °C 29.9in /  1012.2hPa Sur 3.7mph /  5.9km/h 6.2mph /  10km/h 52% 0in /  0.0mm
05:59 75.6 °F /  24.2 °C 56.7 °F /  13.7 °C 29.9in /  1012.1hPa Sur 4mph /  6.4km/h 6mph /  9.7km/h 51.8% 0in /  0.0mm
06:04 75.6 °F /  24.2 °C 56.1 °F /  13.4 °C 29.9in /  1012.1hPa SSO 4mph /  6.5km/h 6.2mph /  10km/h 51% 0in /  0.0mm
06:09 75.6 °F /  24.2 °C 56.1 °F /  13.4 °C 29.9in /  1012.1hPa SSO 4mph /  6.5km/h 6mph /  9.7km/h 51% 0in /  0.0mm
06:14 75.6 °F /  24.2 °C 56.5 °F /  13.6 °C 29.9in /  1012.1hPa SSO 4mph /  6.5km/h 6.2mph /  10km/h 51.6% 0in /  0.0mm
06:19 75.6 °F /  24.2 °C 56.7 °F /  13.7 °C 29.9in /  1012.1hPa SO 4mph /  6.5km/h 6.9mph /  11.1km/h 52% 0in /  0.0mm
06:24 75.6 °F /  24.2 °C 56.7 °F /  13.7 °C 29.9in /  1012.3hPa SO 4mph /  6.5km/h 8.5mph /  13.7km/h 52% 0in /  0.0mm
06:29 75.4 °F /  24.1 °C 56.5 °F /  13.6 °C 29.9in /  1012.3hPa SO 4.3mph /  6.9km/h 9mph /  14.5km/h 52% 0in /  0.0mm
06:34 75.4 °F /  24.1 °C 56.5 °F /  13.6 °C 29.9in /  1012.3hPa Sur 4.2mph /  6.8km/h 6mph /  9.7km/h 52% 0in /  0.0mm
06:39 75.4 °F /  24.1 °C 56.5 °F /  13.6 °C 29.9in /  1012.3hPa Sur 3.6mph /  5.8km/h 5mph /  8km/h 51.9% 0in /  0.0mm
06:44 75.4 °F /  24.1 °C 56.5 °F /  13.6 °C 29.9in /  1012.2hPa SSE 3.6mph /  5.8km/h 5mph /  8km/h 52% 0in /  0.0mm
06:49 75.2 °F /  24 °C 56.5 °F /  13.6 °C 29.9in /  1012.2hPa SSE 3.6mph /  5.8km/h 5.9mph /  9.5km/h 52% 0in /  0.0mm
06:54 75 °F /  23.9 °C 56.1 °F /  13.4 °C 29.9in /  1012.2hPa Sur 3.6mph /  5.8km/h 6mph /  9.7km/h 52% 0in /  0.0mm
06:59 74.8 °F /  23.8 °C 56.5 °F /  13.6 °C 29.9in /  1012.2hPa SSO 3.6mph /  5.8km/h 5mph /  8km/h 52.6% 0in /  0.0mm
07:04 74.8 °F /  23.8 °C 56.5 °F /  13.6 °C 29.9in /  1012.2hPa SSO 3.4mph /  5.4km/h 4.6mph /  7.4km/h 52.8% 0in /  0.0mm
07:09 74.7 °F /  23.7 °C 56.5 °F /  13.6 °C 29.9in /  1012.4hPa Sur 2mph /  3.2km/h 5.2mph /  8.4km/h 53% 0in /  0.0mm
07:14 74.7 °F /  23.7 °C 56.3 °F /  13.5 °C 29.9in /  1012.4hPa SSE 2.1mph /  3.4km/h 5.2mph /  8.4km/h 53% 0in /  0.0mm
07:19 74.5 °F /  23.6 °C 56.1 °F /  13.4 °C 29.9in /  1012.4hPa Sur 3.1mph /  5km/h 5.9mph /  9.5km/h 53% 0in /  0.0mm
07:24 74.5 °F /  23.6 °C 56.1 °F /  13.4 °C 29.9in /  1012.5hPa Sur 3.2mph /  5.2km/h 5.9mph /  9.5km/h 53% 0in /  0.0mm
07:29 74.5 °F /  23.6 °C 56.3 °F /  13.5 °C 29.9in /  1012.5hPa SSO 4mph /  6.4km/h 6mph /  9.7km/h 53.2% 0in /  0.0mm
07:34 74.5 °F /  23.6 °C 56.7 °F /  13.7 °C 29.9in /  1012.5hPa SSO 3.9mph /  6.2km/h 6mph /  9.7km/h 54% 0in /  0.0mm
07:39 74.3 °F /  23.5 °C 56.7 °F /  13.7 °C 29.9in /  1012.8hPa SSO 3.1mph /  5km/h 6mph /  9.7km/h 54% 0in /  0.0mm
07:44 74.1 °F /  23.4 °C 56.5 °F /  13.6 °C 29.9in /  1012.8hPa SSO 3.1mph /  5km/h 4.6mph /  7.4km/h 54% 0in /  0.0mm
07:49 74.1 °F /  23.4 °C 56.5 °F /  13.6 °C 29.9in /  1012.8hPa SSO 3.1mph /  5km/h 5mph /  8km/h 54% 0in /  0.0mm
07:54 74.1 °F /  23.4 °C 56.5 °F /  13.6 °C 29.9in /  1012.9hPa SSO 3mph /  4.8km/h 5mph /  8km/h 54% 0in /  0.0mm
07:59 74.1 °F /  23.4 °C 56.5 °F /  13.6 °C 29.9in /  1012.9hPa SSO 2.4mph /  3.9km/h 5.2mph /  8.4km/h 54% 0in /  0.0mm
08:04 74.1 °F /  23.4 °C 56.5 °F /  13.6 °C 29.9in /  1012.9hPa SO 2.5mph /  4km/h 5mph /  8km/h 54% 0in /  0.0mm
08:09 74.3 °F /  23.5 °C 56.5 °F /  13.6 °C 29.9in /  1012.9hPa SO 2.9mph /  4.7km/h 5mph /  8km/h 54% 0in /  0.0mm
08:14 74.3 °F /  23.5 °C 56.7 °F /  13.7 °C 29.9in /  1012.8hPa SO 2.9mph /  4.7km/h 5mph /  8km/h 54.3% 0in /  0.0mm
08:19 74.1 °F /  23.4 °C 56.8 °F /  13.8 °C 29.9in /  1012.8hPa SO 2.9mph /  4.7km/h 5mph /  8km/h 54.7% 0in /  0.0mm
08:24 74.1 °F /  23.4 °C 56.8 °F /  13.8 °C 29.9in /  1012.9hPa SSO 2.9mph /  4.7km/h 5.8mph /  9.3km/h 55% 0in /  0.0mm
08:29 74.1 °F /  23.4 °C 57 °F /  13.9 °C 29.9in /  1012.9hPa SE 2.9mph /  4.7km/h 6mph /  9.7km/h 55.3% 0in /  0.0mm
08:34 74.1 °F /  23.4 °C 57.6 °F /  14.2 °C 29.9in /  1012.9hPa SE 3mph /  4.8km/h 6.9mph /  11.1km/h 56.3% 0in /  0.0mm
08:39 73.6 °F /  23.1 °C 57.7 °F /  14.3 °C 29.9in /  1012.9hPa SSE 3.6mph /  5.8km/h 7mph /  11.3km/h 57.7% 0in /  0.0mm
08:44 73.2 °F /  22.9 °C 57.6 °F /  14.2 °C 29.9in /  1012.9hPa SSE 3.6mph /  5.8km/h 6.9mph /  11.1km/h 58% 0in /  0.0mm
08:49 73 °F /  22.8 °C 57.4 °F /  14.1 °C 29.9in /  1012.9hPa SSE 3.6mph /  5.8km/h 8.5mph /  13.7km/h 58% 0in /  0.0mm
08:54 73 °F /  22.8 °C 57.4 °F /  14.1 °C 29.9in /  1013.1hPa SSE 3.8mph /  6.1km/h 9mph /  14.5km/h 58% 0in /  0.0mm
08:59 73.2 °F /  22.9 °C 57.4 °F /  14.1 °C 29.9in /  1013.1hPa Sur 5.2mph /  8.4km/h 7mph /  11.3km/h 57.7% 0in /  0.0mm
09:04 73.6 °F /  23.1 °C 57.4 °F /  14.1 °C 29.9in /  1013.1hPa SO 5mph /  8.1km/h 7mph /  11.3km/h 57.1% 0in /  0.0mm
09:09 73.8 °F /  23.2 °C 57.2 °F /  14 °C 29.9in /  1013.3hPa SO 4.3mph /  6.9km/h 7mph /  11.3km/h 56.1% 0in /  0.0mm
09:14 73.9 °F /  23.3 °C 57.4 °F /  14.1 °C 29.9in /  1013.3hPa OSO 4.2mph /  6.7km/h 6mph /  9.7km/h 56% 0in /  0.0mm
09:19 74.3 °F /  23.5 °C 57.2 °F /  14 °C 29.9in /  1013.3hPa OSO 3.1mph /  5km/h 5.9mph /  9.5km/h 55.1% 0in /  0.0mm
09:24 74.7 °F /  23.7 °C 57.2 °F /  14 °C 29.9in /  1013.3hPa SSO 3.1mph /  5km/h 6mph /  9.7km/h 54.8% 0in /  0.0mm
09:29 74.8 °F /  23.8 °C 57 °F /  13.9 °C 29.9in /  1013.3hPa Sur 3.1mph /  5km/h 7.4mph /  11.9km/h 54% 0in /  0.0mm
09:34 75 °F /  23.9 °C 57 °F /  13.9 °C 29.9in /  1013.3hPa Sur 3.2mph /  5.2km/h 7mph /  11.3km/h 53.8% 0in /  0.0mm
09:39 75.2 °F /  24 °C 57.4 °F /  14.1 °C 29.9in /  1013.3hPa Sur 4mph /  6.4km/h 6mph /  9.7km/h 53.7% 0in /  0.0mm
09:44 75.6 °F /  24.2 °C 57.2 °F /  14 °C 29.9in /  1013.3hPa OSO 3.8mph /  6.1km/h 5mph /  8km/h 53% 0in /  0.0mm
09:49 75.6 °F /  24.2 °C 57 °F /  13.9 °C 29.9in /  1013.3hPa Oeste 2.4mph /  3.9km/h 4mph /  6.4km/h 52.4% 0in /  0.0mm
09:54 75.9 °F /  24.4 °C 57.4 °F /  14.1 °C 29.9in /  1013.5hPa OSO 2.3mph /  3.7km/h 3.6mph /  5.8km/h 52.6% 0in /  0.0mm
09:59 76.3 °F /  24.6 °C 57.7 °F /  14.3 °C 29.9in /  1013.5hPa SO 1.8mph /  2.9km/h 4.3mph /  6.9km/h 52.9% 0in /  0.0mm
10:04 76.5 °F /  24.7 °C 57.6 °F /  14.2 °C 29.9in /  1013.5hPa SSO 1.9mph /  3.1km/h 5mph /  8km/h 52% 0in /  0.0mm
10:09 76.6 °F /  24.8 °C 57.6 °F /  14.2 °C 29.9in /  1013.9hPa SO 2.9mph /  4.7km/h 5.8mph /  9.3km/h 52% 0in /  0.0mm
10:14 76.8 °F /  24.9 °C 57.7 °F /  14.3 °C 29.9in /  1013.9hPa SSO 3mph /  4.8km/h 6mph /  9.7km/h 51.9% 0in /  0.0mm
10:19 77 °F /  25 °C 57.7 °F /  14.3 °C 29.9in /  1013.9hPa SO 3.6mph /  5.8km/h 5.2mph /  8.4km/h 51.4% 0in /  0.0mm
10:24 77.2 °F /  25.1 °C 57.7 °F /  14.3 °C 29.9in /  1013.9hPa OSO 3.4mph /  5.5km/h 5mph /  8km/h 51% 0in /  0.0mm
10:29 77.4 °F /  25.2 °C 57.7 °F /  14.3 °C 29.9in /  1013.7hPa OSO 2.4mph /  3.9km/h 5mph /  8km/h 51% 0in /  0.0mm
10:34 77.5 °F /  25.3 °C 58.1 °F /  14.5 °C 29.9in /  1013.7hPa SSE 2.4mph /  3.9km/h 4.6mph /  7.4km/h 51% 0in /  0.0mm
10:39 77.7 °F /  25.4 °C 58.6 °F /  14.8 °C 29.9in /  1013.8hPa ESE 2.4mph /  3.9km/h 5.8mph /  9.3km/h 51.9% 0in /  0.0mm
10:44 77.7 °F /  25.4 °C 59.7 °F /  15.4 °C 29.9in /  1013.8hPa SE 2.5mph /  4.1km/h 6mph /  9.7km/h 54% 0in /  0.0mm
10:49 77.7 °F /  25.4 °C 59.2 °F /  15.1 °C 29.9in /  1013.8hPa SE 3.6mph /  5.8km/h 6mph /  9.7km/h 53% 0in /  0.0mm
10:54 77.5 °F /  25.3 °C 58.5 °F /  14.7 °C 29.9in /  1013.8hPa SE 3.5mph /  5.6km/h 5mph /  8km/h 51.8% 0in /  0.0mm
10:59 77.5 °F /  25.3 °C 58.1 °F /  14.5 °C 29.9in /  1013.7hPa SO 2.9mph /  4.7km/h 5mph /  8km/h 51.1% 0in /  0.0mm
11:04 77.7 °F /  25.4 °C 58.3 °F /  14.6 °C 29.9in /  1013.7hPa Sur 2.8mph /  4.5km/h 5mph /  8km/h 51.2% 0in /  0.0mm
11:09 78.3 °F /  25.7 °C 58.3 °F /  14.6 °C 29.9in /  1013.9hPa Sur 2.4mph /  3.9km/h 5.8mph /  9.3km/h 50.4% 0in /  0.0mm
11:14 78.4 °F /  25.8 °C 57.9 °F /  14.4 °C 29.9in /  1013.9hPa Sur 2.5mph /  4.1km/h 6mph /  9.7km/h 49.3% 0in /  0.0mm
11:19 79 °F /  26.1 °C 57.6 °F /  14.2 °C 29.9in /  1013.9hPa SSE 3.6mph /  5.8km/h 6mph /  9.7km/h 48% 0in /  0.0mm
11:24 79.5 °F /  26.4 °C 58.1 °F /  14.5 °C 29.9in /  1013.9hPa Sur 3.6mph /  5.8km/h 6.9mph /  11.1km/h 47.9% 0in /  0.0mm
11:29 79.9 °F /  26.6 °C 57.7 °F /  14.3 °C 29.9in /  1013.9hPa SSO 3.6mph /  5.8km/h 7mph /  11.3km/h 47% 0in /  0.0mm
11:34 79.9 °F /  26.6 °C 57.7 °F /  14.3 °C 29.9in /  1013.9hPa Oeste 3.6mph /  5.8km/h 6.2mph /  10km/h 47% 0in /  0.0mm
11:39 79.9 °F /  26.6 °C 57.7 °F /  14.3 °C 29.9in /  1014.0hPa Oeste 3.6mph /  5.8km/h 8.1mph /  13km/h 47% 0in /  0.0mm
11:44 79.7 °F /  26.5 °C 57.6 °F /  14.2 °C 29.9in /  1014.0hPa OSO 3.7mph /  5.9km/h 8.1mph /  13km/h 47% 0in /  0.0mm
11:49 79.5 °F /  26.4 °C 57.6 °F /  14.2 °C 29.9in /  1014.0hPa Oeste 4.3mph /  6.9km/h 7mph /  11.3km/h 47% 0in /  0.0mm
11:54 79.3 °F /  26.3 °C 57.6 °F /  14.2 °C 29.9in /  1014.0hPa OSO 4.2mph /  6.8km/h 6mph /  9.7km/h 47.2% 0in /  0.0mm
11:59 79.3 °F /  26.3 °C 57.6 °F /  14.2 °C 29.9in /  1014.0hPa OSO 3.6mph /  5.8km/h 6mph /  9.7km/h 47.1% 0in /  0.0mm
12:04 79.7 °F /  26.5 °C 58.1 °F /  14.5 °C 29.9in /  1014.0hPa SSO 3.5mph /  5.7km/h 6.4mph /  10.3km/h 47.9% 0in /  0.0mm
12:09 80.1 °F /  26.7 °C 57.9 °F /  14.4 °C 29.9in /  1014.0hPa Sur 3.1mph /  5km/h 7mph /  11.3km/h 47.1% 0in /  0.0mm
12:14 80.2 °F /  26.8 °C 57.9 °F /  14.4 °C 29.9in /  1013.9hPa Sur 3.2mph /  5.1km/h 7.4mph /  11.9km/h 46.3% 0in /  0.0mm
12:19 80.8 °F /  27.1 °C 58.1 °F /  14.5 °C 29.9in /  1013.9hPa SE 3.6mph /  5.8km/h 7mph /  11.3km/h 46% 0in /  0.0mm
12:24 81.1 °F /  27.3 °C 57.7 °F /  14.3 °C 29.9in /  1013.9hPa ONO 3.4mph /  5.5km/h 5mph /  8km/h 45% 0in /  0.0mm
12:29 81.7 °F /  27.6 °C 57.9 °F /  14.4 °C 29.9in /  1013.6hPa ONO 2mph /  3.2km/h 5mph /  8km/h 44.7% 0in /  0.0mm
12:34 81.7 °F /  27.6 °C 57.7 °F /  14.3 °C 29.9in /  1013.6hPa ONO 2.1mph /  3.4km/h 5.9mph /  9.5km/h 44.1% 0in /  0.0mm
12:39 81.7 °F /  27.6 °C 58.1 °F /  14.5 °C 29.9in /  1013.6hPa NO 2.9mph /  4.7km/h 6mph /  9.7km/h 44.8% 0in /  0.0mm
12:44 82 °F /  27.8 °C 58.3 °F /  14.6 °C 29.9in /  1013.4hPa Oeste 2.9mph /  4.6km/h 5.9mph /  9.5km/h 44.4% 0in /  0.0mm
12:49 82.4 °F /  28 °C 57.7 °F /  14.3 °C 29.9in /  1013.4hPa Oeste 2.4mph /  3.9km/h 6mph /  9.7km/h 43% 0in /  0.0mm
12:54 82.6 °F /  28.1 °C 57.4 °F /  14.1 °C 29.9in /  1013.4hPa SSO 2.5mph /  4.1km/h 6.9mph /  11.1km/h 42.4% 0in /  0.0mm
12:59 82.8 °F /  28.2 °C 57.4 °F /  14.1 °C 29.9in /  1013.2hPa SO 3.6mph /  5.8km/h 7mph /  11.3km/h 42.2% 0in /  0.0mm
13:04 82.9 °F /  28.3 °C 57.7 °F /  14.3 °C 29.9in /  1013.2hPa OSO 3.7mph /  5.9km/h 9.2mph /  14.8km/h 42.5% 0in /  0.0mm
13:09 82.9 °F /  28.3 °C 57.6 °F /  14.2 °C 29.9in /  1013.2hPa SSO 4mph /  6.4km/h 9mph /  14.5km/h 42% 0in /  0.0mm
13:14 83.1 °F /  28.4 °C 57.7 °F /  14.3 °C 29.9in /  1013.2hPa OSO 4mph /  6.5km/h 7mph /  11.3km/h 42% 0in /  0.0mm
13:19 83.7 °F /  28.7 °C 57.4 °F /  14.1 °C 29.9in /  1013.2hPa OSO 4mph /  6.5km/h 6.2mph /  10km/h 41.1% 0in /  0.0mm
13:24 84 °F /  28.9 °C 57 °F /  13.9 °C 29.9in /  1013.2hPa SSO 4mph /  6.4km/h 8.7mph /  14km/h 40% 0in /  0.0mm
13:29 84.7 °F /  29.3 °C 57.4 °F /  14.1 °C 29.9in /  1012.9hPa Sur 3.6mph /  5.8km/h 10mph /  16.1km/h 39.6% 0in /  0.0mm
13:34 84.9 °F /  29.4 °C 57.4 °F /  14.1 °C 29.9in /  1012.9hPa SSO 3.7mph /  6km/h 10mph /  16.1km/h 39% 0in /  0.0mm
13:39 85.3 °F /  29.6 °C 57.6 °F /  14.2 °C 29.9in /  1012.9hPa SO 4.7mph /  7.6km/h 8mph /  12.9km/h 39% 0in /  0.0mm
13:44 85.6 °F /  29.8 °C 57.4 °F /  14.1 °C 29.9in /  1012.5hPa SSO 4.6mph /  7.4km/h 7.4mph /  11.9km/h 38.2% 0in /  0.0mm
13:49 86.2 °F /  30.1 °C 57.6 °F /  14.2 °C 29.9in /  1012.5hPa SSO 4mph /  6.5km/h 7.4mph /  11.9km/h 38% 0in /  0.0mm
13:54 86.5 °F /  30.3 °C 57.4 °F /  14.1 °C 29.9in /  1012.5hPa SE 4mph /  6.5km/h 8mph /  12.9km/h 37.2% 0in /  0.0mm
13:59 86.9 °F /  30.5 °C 57.6 °F /  14.2 °C 29.9in /  1012.3hPa OSO 4mph /  6.5km/h 9.2mph /  14.8km/h 37% 0in /  0.0mm
14:04 87.1 °F /  30.6 °C 57.6 °F /  14.2 °C 29.9in /  1012.3hPa SSO 4mph /  6.5km/h 9mph /  14.5km/h 36.8% 0in /  0.0mm
14:09 87.1 °F /  30.6 °C 56.8 °F /  13.8 °C 29.9in /  1012.3hPa OSO 4.3mph /  6.9km/h 9.2mph /  14.8km/h 36% 0in /  0.0mm
14:14 87.3 °F /  30.7 °C 57 °F /  13.9 °C 29.9in /  1012.0hPa OSO 4.3mph /  6.9km/h 9mph /  14.5km/h 36% 0in /  0.0mm
14:19 87.4 °F /  30.8 °C 57.6 °F /  14.2 °C 29.9in /  1012.0hPa ONO 4.3mph /  6.9km/h 6mph /  9.7km/h 36.4% 0in /  0.0mm
14:24 88 °F /  31.1 °C 57.6 °F /  14.2 °C 29.9in /  1012.0hPa Oeste 4.2mph /  6.7km/h 8.1mph /  13km/h 36% 0in /  0.0mm
14:29 88.2 °F /  31.2 °C 57.2 °F /  14 °C 29.9in /  1011.8hPa NO 3.1mph /  5km/h 8mph /  12.9km/h 35.2% 0in /  0.0mm
14:34 88.3 °F /  31.3 °C 57.2 °F /  14 °C 29.9in /  1011.8hPa Oeste 3.3mph /  5.3km/h 7.4mph /  11.9km/h 35% 0in /  0.0mm
14:39 88.5 °F /  31.4 °C 57 °F /  13.9 °C 29.9in /  1011.8hPa OSO 4.3mph /  6.9km/h 8.5mph /  13.7km/h 34.6% 0in /  0.0mm
14:44 88.3 °F /  31.3 °C 56.5 °F /  13.6 °C 29.9in /  1011.7hPa Oeste 4.3mph /  6.9km/h 9mph /  14.5km/h 34.1% 0in /  0.0mm
14:49 88.5 °F /  31.4 °C 57 °F /  13.9 °C 29.9in /  1011.7hPa OSO 4.3mph /  6.9km/h 8mph /  12.9km/h 34.7% 0in /  0.0mm
14:54 89.1 °F /  31.7 °C 56.8 °F /  13.8 °C 29.9in /  1011.7hPa OSO 4mph /  6.5km/h 5mph /  8km/h 33.8% 0in /  0.0mm
14:59 89.6 °F /  32 °C 56.7 °F /  13.7 °C 29.9in /  1011.3hPa NO 2.4mph /  3.9km/h 5.9mph /  9.5km/h 33% 0in /  0.0mm
15:04 90 °F /  32.2 °C 56.8 °F /  13.8 °C 29.9in /  1011.3hPa NO 2.4mph /  3.8km/h 6mph /  9.7km/h 33% 0in /  0.0mm
15:09 90.1 °F /  32.3 °C 56.8 °F /  13.8 °C 29.9in /  1011.3hPa NO 2mph /  3.2km/h 6.2mph /  10km/h 32.7% 0in /  0.0mm
15:14 90.1 °F /  32.3 °C 56.8 °F /  13.8 °C 29.9in /  1011.1hPa NNO 2.2mph /  3.5km/h 8.1mph /  13km/h 32.7% 0in /  0.0mm
15:19 90.3 °F /  32.4 °C 56.8 °F /  13.8 °C 29.9in /  1011.1hPa NNE 3.1mph /  5km/h 8mph /  12.9km/h 32.5% 0in /  0.0mm
15:24 90.7 °F /  32.6 °C 56.7 °F /  13.7 °C 29.9in /  1010.9hPa NE 2.7mph /  4.4km/h 4.7mph /  7.6km/h 32% 0in /  0.0mm
15:29 90.7 °F /  32.6 °C 55.9 °F /  13.3 °C 29.9in /  1010.9hPa ONO 2mph /  3.2km/h 6.9mph /  11.1km/h 31.1% 0in /  0.0mm
15:34 90.5 °F /  32.5 °C 56.1 °F /  13.4 °C 29.9in /  1010.9hPa ENE 2.2mph /  3.6km/h 7mph /  11.3km/h 31.4% 0in /  0.0mm
15:39 90.9 °F /  32.7 °C 56.1 °F /  13.4 °C 29.9in /  1010.9hPa SSO 3.6mph /  5.8km/h 5.9mph /  9.5km/h 31.1% 0in /  0.0mm
15:44 91.2 °F /  32.9 °C 56.5 °F /  13.6 °C 29.9in /  1010.8hPa ONO 3.7mph /  5.9km/h 12.7mph /  20.4km/h 31.1% 0in /  0.0mm
15:49 91.2 °F /  32.9 °C 56.5 °F /  13.6 °C 29.9in /  1010.8hPa Oeste 4mph /  6.4km/h 13mph /  20.9km/h 31% 0in /  0.0mm
15:54 91.6 °F /  33.1 °C 56.7 °F /  13.7 °C 29.9in /  1010.8hPa Oeste 4mph /  6.5km/h 9mph /  14.5km/h 31% 0in /  0.0mm
15:59 91.8 °F /  33.2 °C 56.8 °F /  13.8 °C 29.9in /  1010.8hPa SO 4mph /  6.5km/h 8.5mph /  13.7km/h 31% 0in /  0.0mm
16:04 91.8 °F /  33.2 °C 56.5 °F /  13.6 °C 29.9in /  1010.8hPa Oeste 4.2mph /  6.8km/h 10.4mph /  16.7km/h 30.7% 0in /  0.0mm
16:09 91.6 °F /  33.1 °C 56.7 °F /  13.7 °C 29.9in /  1010.8hPa Oeste 5.2mph /  8.4km/h 10mph /  16.1km/h 31% 0in /  0.0mm
16:14 91.8 °F /  33.2 °C 56.8 °F /  13.8 °C 29.9in /  1010.8hPa NO 4.9mph /  7.9km/h 7mph /  11.3km/h 31.1% 0in /  0.0mm
16:19 91.9 °F /  33.3 °C 57 °F /  13.9 °C 29.9in /  1010.8hPa ONO 3.1mph /  5km/h 8.1mph /  13km/h 31% 0in /  0.0mm
16:24 91.9 °F /  33.3 °C 56.8 °F /  13.8 °C 29.9in /  1010.8hPa SO 3.2mph /  5.2km/h 8.1mph /  13km/h 30.8% 0in /  0.0mm
16:29 92.1 °F /  33.4 °C 56.7 °F /  13.7 °C 29.8in /  1010.6hPa SO 4mph /  6.4km/h 10.4mph /  16.7km/h 30.5% 0in /  0.0mm
16:34 92.7 °F /  33.7 °C 56.7 °F /  13.7 °C 29.8in /  1010.6hPa SO 4mph /  6.4km/h 10mph /  16.1km/h 30% 0in /  0.0mm
16:39 92.7 °F /  33.7 °C 56.5 °F /  13.6 °C 29.8in /  1010.6hPa SO 3.6mph /  5.8km/h 10.4mph /  16.7km/h 29.9% 0in /  0.0mm
16:44 92.5 °F /  33.6 °C 56.5 °F /  13.6 °C 29.8in /  1010.5hPa SSO 3.7mph /  6km/h 10mph /  16.1km/h 30% 0in /  0.0mm
16:49 92.1 °F /  33.4 °C 56.3 °F /  13.5 °C 29.8in /  1010.5hPa SSO 5.3mph /  8.6km/h 10mph /  16.1km/h 30% 0in /  0.0mm
16:54 92.1 °F /  33.4 °C 56.5 °F /  13.6 °C 29.8in /  1010.5hPa SSO 5.2mph /  8.4km/h 9mph /  14.5km/h 30.3% 0in /  0.0mm
16:59 91.9 °F /  33.3 °C 57 °F /  13.9 °C 29.8in /  1010.5hPa Sur 4mph /  6.5km/h 8mph /  12.9km/h 30.9% 0in /  0.0mm
17:04 91.9 °F /  33.3 °C 56.8 °F /  13.8 °C 29.8in /  1010.5hPa SSO 4mph /  6.5km/h 7mph /  11.3km/h 31% 0in /  0.0mm
17:09 91.8 °F /  33.2 °C 56.8 °F /  13.8 °C 29.8in /  1010.6hPa SO 4mph /  6.5km/h 9.2mph /  14.8km/h 31% 0in /  0.0mm
17:14 91.6 °F /  33.1 °C 56.5 °F /  13.6 °C 29.8in /  1010.6hPa SO 4.1mph /  6.6km/h 9.2mph /  14.8km/h 30.7% 0in /  0.0mm
17:19 91.4 °F /  33 °C 56.5 °F /  13.6 °C 29.8in /  1010.6hPa Oeste 4.7mph /  7.6km/h 8mph /  12.9km/h 31% 0in /  0.0mm
17:24 91.2 °F /  32.9 °C 56.5 °F /  13.6 °C 29.8in /  1010.6hPa ONO 4.5mph /  7.3km/h 7mph /  11.3km/h 31% 0in /  0.0mm
17:29 91.2 °F /  32.9 °C 56.5 °F /  13.6 °C 29.8in /  1010.6hPa ONO 3.6mph /  5.8km/h 9.2mph /  14.8km/h 31.1% 0in /  0.0mm
17:34 91 °F /  32.8 °C 56.3 °F /  13.5 °C 29.8in /  1010.6hPa Oeste 3.9mph /  6.2km/h 10.4mph /  16.7km/h 31.1% 0in /  0.0mm
17:39 90.9 °F /  32.7 °C 56.7 °F /  13.7 °C 29.8in /  1010.6hPa ONO 5.4mph /  8.7km/h 10mph /  16.1km/h 31.7% 0in /  0.0mm
17:44 90.7 °F /  32.6 °C 56.7 °F /  13.7 °C 29.8in /  1010.6hPa ONO 5.3mph /  8.5km/h 8.1mph /  13km/h 31.8% 0in /  0.0mm
17:49 90.5 °F /  32.5 °C 56.7 °F /  13.7 °C 29.8in /  1010.6hPa Oeste 4.7mph /  7.6km/h 8mph /  12.9km/h 32% 0in /  0.0mm
17:54 90.3 °F /  32.4 °C 56.5 °F /  13.6 °C 29.8in /  1010.6hPa OSO 4.7mph /  7.5km/h 7mph /  11.3km/h 32% 0in /  0.0mm
17:59 90.3 °F /  32.4 °C 55.6 °F /  13.1 °C 29.8in /  1010.6hPa Oeste 4.3mph /  6.9km/h 11.8mph /  19km/h 31% 0in /  0.0mm
18:04 90.3 °F /  32.4 °C 55.6 °F /  13.1 °C 29.8in /  1010.6hPa OSO 4.5mph /  7.2km/h 12mph /  19.3km/h 31% 0in /  0.0mm
18:09 90.3 °F /  32.4 °C 55 °F /  12.8 °C 29.8in /  1010.6hPa SO 5.4mph /  8.7km/h 16.3mph /  26.2km/h 30.3% 0in /  0.0mm
18:14 90.7 °F /  32.6 °C 54 °F /  12.2 °C 29.8in /  1010.4hPa SO 5.7mph /  9.2km/h 19mph /  30.6km/h 28.9% 0in /  0.0mm
18:19 90.9 °F /  32.7 °C 53.6 °F /  12 °C 29.8in /  1010.4hPa SSO 8.1mph /  13km/h 19mph /  30.6km/h 28.4% 0in /  0.0mm
18:24 90.7 °F /  32.6 °C 51.6 °F /  10.9 °C 29.8in /  1010.6hPa SO 8.6mph /  13.9km/h 27.6mph /  44.4km/h 26.5% 0in /  0.0mm
18:29 90.7 °F /  32.6 °C 51.1 °F /  10.6 °C 29.8in /  1010.6hPa SO 12.5mph /  20.1km/h 31.1mph /  50.1km/h 26% 0in /  0.0mm
18:34 90.7 °F /  32.6 °C 51.1 °F /  10.6 °C 29.8in /  1010.6hPa SO 12.9mph /  20.8km/h 31mph /  49.9km/h 26% 0in /  0.0mm
18:39 90.7 °F /  32.6 °C 51.1 °F /  10.6 °C 29.8in /  1010.6hPa SO 15.6mph /  25.1km/h 28mph /  45.1km/h 26% 0in /  0.0mm
18:44 90.7 °F /  32.6 °C 50 °F /  10 °C 29.8in /  1010.6hPa SO 15.3mph /  24.7km/h 26.8mph /  43.1km/h 25.1% 0in /  0.0mm
18:49 90.7 °F /  32.6 °C 50.5 °F /  10.3 °C 29.8in /  1010.6hPa SO 13.7mph /  22.1km/h 28.4mph /  45.7km/h 25.5% 0in /  0.0mm
18:54 90.7 °F /  32.6 °C 51.1 °F /  10.6 °C 29.8in /  1010.6hPa SO 13.7mph /  22.1km/h 29mph /  46.7km/h 26% 0in /  0.0mm
18:59 90.7 °F /  32.6 °C 51.1 °F /  10.6 °C 29.8in /  1010.6hPa SO 14mph /  22.5km/h 29mph /  46.7km/h 26% 0in /  0.0mm
19:04 90.7 °F /  32.6 °C 50.4 °F /  10.2 °C 29.8in /  1010.6hPa SO 14mph /  22.5km/h 31.1mph /  50.1km/h 25.4% 0in /  0.0mm
19:09 90.7 °F /  32.6 °C 50 °F /  10 °C 29.8in /  1010.6hPa SO 14mph /  22.5km/h 31mph /  49.9km/h 25% 0in /  0.0mm
19:14 90.5 °F /  32.5 °C 50.4 °F /  10.2 °C 29.8in /  1010.6hPa SO 14.3mph /  23km/h 28mph /  45.1km/h 25.4% 0in /  0.0mm
19:19 90.3 °F /  32.4 °C 50.9 °F /  10.5 °C 29.8in /  1010.6hPa SO 15.9mph /  25.6km/h 28mph /  45.1km/h 26% 0in /  0.0mm
19:24 90.1 °F /  32.3 °C 50.7 °F /  10.4 °C 29.8in /  1010.7hPa SO 15.6mph /  25.1km/h 27.3mph /  43.9km/h 26% 0in /  0.0mm
19:29 90.1 °F /  32.3 °C 50.5 °F /  10.3 °C 29.8in /  1010.7hPa SO 13.7mph /  22.1km/h 29.9mph /  48.1km/h 26% 0in /  0.0mm
19:34 90 °F /  32.2 °C 50.7 °F /  10.4 °C 29.8in /  1010.7hPa SO 13.9mph /  22.3km/h 27.6mph /  44.4km/h 26.3% 0in /  0.0mm
19:39 89.8 °F /  32.1 °C 51.3 °F /  10.7 °C 29.9in /  1010.9hPa SO 14.7mph /  23.6km/h 28mph /  45.1km/h 26.9% 0in /  0.0mm
19:44 89.8 °F /  32.1 °C 51.3 °F /  10.7 °C 29.9in /  1010.9hPa OSO 14.7mph /  23.6km/h 28mph /  45.1km/h 27% 0in /  0.0mm
19:49 89.4 °F /  31.9 °C 51.1 °F /  10.6 °C 29.9in /  1010.9hPa SO 14.5mph /  23.3km/h 23.5mph /  37.8km/h 27% 0in /  0.0mm
19:54 89.4 °F /  31.9 °C 51.1 °F /  10.6 °C 29.9in /  1011.2hPa SO 14.2mph /  22.9km/h 23mph /  37km/h 27% 0in /  0.0mm
19:59 89.2 °F /  31.8 °C 50.9 °F /  10.5 °C 29.9in /  1011.2hPa OSO 12.5mph /  20.1km/h 20.8mph /  33.5km/h 27% 0in /  0.0mm
20:04 89.2 °F /  31.8 °C 50.9 °F /  10.5 °C 29.9in /  1011.2hPa OSO 12.2mph /  19.7km/h 21mph /  33.8km/h 27% 0in /  0.0mm
20:09 89.1 °F /  31.7 °C 51.4 °F /  10.8 °C 29.9in /  1011.2hPa OSO 10.7mph /  17.2km/h 21mph /  33.8km/h 27.7% 0in /  0.0mm
20:14 88.9 °F /  31.6 °C 51.6 °F /  10.9 °C 29.9in /  1011.2hPa OSO 10.4mph /  16.7km/h 21mph /  33.8km/h 28% 0in /  0.0mm
20:19 88.7 °F /  31.5 °C 51.4 °F /  10.8 °C 29.9in /  1011.2hPa OSO 8.5mph /  13.7km/h 16mph /  25.7km/h 28% 0in /  0.0mm
20:24 88.5 °F /  31.4 °C 51.3 °F /  10.7 °C 29.9in /  1011.6hPa OSO 8.7mph /  14km/h 18.4mph /  29.6km/h 28% 0in /  0.0mm
20:29 88.5 °F /  31.4 °C 51.4 °F /  10.8 °C 29.9in /  1011.6hPa Oeste 9.7mph /  15.6km/h 18mph /  29km/h 28.1% 0in /  0.0mm
20:34 88.2 °F /  31.2 °C 52.2 °F /  11.2 °C 29.9in /  1011.6hPa ONO 9.6mph /  15.5km/h 18.5mph /  29.8km/h 29.3% 0in /  0.0mm
20:39 87.6 °F /  30.9 °C 52.3 °F /  11.3 °C 29.9in /  1011.7hPa Oeste 9.2mph /  14.8km/h 19mph /  30.6km/h 30% 0in /  0.0mm
20:44 87.3 °F /  30.7 °C 52.9 °F /  11.6 °C 29.9in /  1011.7hPa Oeste 9.2mph /  14.8km/h 16.1mph /  25.9km/h 30.8% 0in /  0.0mm
20:49 87.1 °F /  30.6 °C 52.7 °F /  11.5 °C 29.9in /  1011.7hPa Oeste 9.2mph /  14.8km/h 16mph /  25.7km/h 31% 0in /  0.0mm
20:54 86.7 °F /  30.4 °C 53.1 °F /  11.7 °C 29.9in /  1012.0hPa Oeste 9.1mph /  14.7km/h 16.3mph /  26.2km/h 31.6% 0in /  0.0mm
20:59 86.5 °F /  30.3 °C 53.2 °F /  11.8 °C 29.9in /  1012.0hPa Oeste 8.5mph /  13.7km/h 16mph /  25.7km/h 32% 0in /  0.0mm
21:04 86.4 °F /  30.2 °C 53.6 °F /  12 °C 29.9in /  1012.0hPa Oeste 8.6mph /  13.9km/h 15mph /  24.1km/h 32.7% 0in /  0.0mm
21:09 86.2 °F /  30.1 °C 53.6 °F /  12 °C 29.9in /  1012.3hPa Oeste 9.7mph /  15.6km/h 15mph /  24.1km/h 33% 0in /  0.0mm
21:14 85.8 °F /  29.9 °C 53.6 °F /  12 °C 29.9in /  1012.3hPa Oeste 9.6mph /  15.5km/h 15.6mph /  25.1km/h 33.2% 0in /  0.0mm
21:19 85.6 °F /  29.8 °C 54 °F /  12.2 °C 29.9in /  1012.3hPa Oeste 9.2mph /  14.8km/h 16.1mph /  25.9km/h 34% 0in /  0.0mm
21:24 85.5 °F /  29.7 °C 54 °F /  12.2 °C 29.9in /  1012.5hPa Oeste 9.3mph /  14.9km/h 17.3mph /  27.8km/h 34% 0in /  0.0mm
21:29 85.5 °F /  29.7 °C 54 °F /  12.2 °C 29.9in /  1012.5hPa Oeste 9.7mph /  15.6km/h 17.3mph /  27.8km/h 34.1% 0in /  0.0mm
21:34 85.1 °F /  29.5 °C 54.3 °F /  12.4 °C 29.9in /  1012.5hPa Oeste 9.5mph /  15.3km/h 17mph /  27.4km/h 35% 0in /  0.0mm
21:39 84.7 °F /  29.3 °C 54.3 °F /  12.4 °C 29.9in /  1012.7hPa Oeste 8.5mph /  13.7km/h 18.4mph /  29.6km/h 35.1% 0in /  0.0mm
21:44 84.7 °F /  29.3 °C 54.7 °F /  12.6 °C 29.9in /  1012.7hPa ONO 8.6mph /  13.9km/h 18mph /  29km/h 36% 0in /  0.0mm
21:49 84.6 °F /  29.2 °C 54.7 °F /  12.6 °C 29.9in /  1012.7hPa Oeste 9.7mph /  15.6km/h 15.2mph /  24.5km/h 36% 0in /  0.0mm
21:54 84.4 °F /  29.1 °C 54.5 °F /  12.5 °C 29.9in /  1013.0hPa Oeste 9.8mph /  15.7km/h 15.6mph /  25.1km/h 36% 0in /  0.0mm
21:59 84.4 °F /  29.1 °C 54.9 °F /  12.7 °C 29.9in /  1013.0hPa Oeste 10mph /  16.1km/h 17.3mph /  27.8km/h 36.4% 0in /  0.0mm
22:04 84.2 °F /  29 °C 55 °F /  12.8 °C 29.9in /  1013.0hPa Oeste 10mph /  16.1km/h 17mph /  27.4km/h 37% 0in /  0.0mm
22:09 84 °F /  28.9 °C 54.9 °F /  12.7 °C 29.9in /  1013.1hPa Oeste 10.2mph /  16.4km/h 20.7mph /  33.3km/h 37% 0in /  0.0mm
22:14 83.8 °F /  28.8 °C 55 °F /  12.8 °C 29.9in /  1013.1hPa Oeste 10.3mph /  16.6km/h 21mph /  33.8km/h 37.2% 0in /  0.0mm
22:19 83.7 °F /  28.7 °C 55.4 °F /  13 °C 29.9in /  1013.1hPa Oeste 11.2mph /  18km/h 20mph /  32.2km/h 38% 0in /  0.0mm
22:24 83.7 °F /  28.7 °C 55.4 °F /  13 °C 29.9in /  1013.4hPa Oeste 11.1mph /  17.8km/h 17.3mph /  27.8km/h 38% 0in /  0.0mm
22:29 83.7 °F /  28.7 °C 55.4 °F /  13 °C 29.9in /  1013.4hPa Oeste 9.7mph /  15.6km/h 17mph /  27.4km/h 38% 0in /  0.0mm
22:34 83.5 °F /  28.6 °C 55.2 °F /  12.9 °C 29.9in /  1013.4hPa Oeste 9.6mph /  15.5km/h 19mph /  30.6km/h 38% 0in /  0.0mm
22:39 83.5 °F /  28.6 °C 55.2 °F /  12.9 °C 29.9in /  1013.4hPa Oeste 9.2mph /  14.8km/h 19mph /  30.6km/h 38% 0in /  0.0mm
22:44 83.5 °F /  28.6 °C 55.2 °F /  12.9 °C 29.9in /  1013.4hPa Oeste 9.6mph /  15.4km/h 20.1mph /  32.3km/h 38% 0in /  0.0mm
22:49 83.5 °F /  28.6 °C 55.2 °F /  12.9 °C 29.9in /  1013.4hPa Oeste 11.8mph /  19km/h 21mph /  33.8km/h 38% 0in /  0.0mm
22:54 83.5 °F /  28.6 °C 55.2 °F /  12.9 °C 29.9in /  1013.5hPa Oeste 11.9mph /  19.1km/h 20.7mph /  33.3km/h 38% 0in /  0.0mm
22:59 83.5 °F /  28.6 °C 55.2 °F /  12.9 °C 29.9in /  1013.5hPa Oeste 12.3mph /  19.8km/h 21mph /  33.8km/h 38% 0in /  0.0mm
23:04 83.3 °F /  28.5 °C 55 °F /  12.8 °C 29.9in /  1013.5hPa Oeste 12.1mph /  19.4km/h 19mph /  30.6km/h 38% 0in /  0.0mm
23:09 83.1 °F /  28.4 °C 54.9 °F /  12.7 °C 29.9in /  1013.5hPa Oeste 10.7mph /  17.2km/h 19mph /  30.6km/h 38% 0in /  0.0mm
23:14 82.9 °F /  28.3 °C 54.9 °F /  12.7 °C 29.9in /  1013.4hPa OSO 10.5mph /  16.9km/h 18mph /  29km/h 38% 0in /  0.0mm
23:19 82.9 °F /  28.3 °C 54.7 °F /  12.6 °C 29.9in /  1013.4hPa OSO 9.2mph /  14.8km/h 17mph /  27.4km/h 38% 0in /  0.0mm
23:24 82.9 °F /  28.3 °C 54.7 °F /  12.6 °C 29.9in /  1013.4hPa OSO 9.1mph /  14.7km/h 15mph /  24.1km/h 38% 0in /  0.0mm
23:29 82.9 °F /  28.3 °C 54.7 °F /  12.6 °C 29.9in /  1013.3hPa OSO 8.5mph /  13.7km/h 13mph /  20.9km/h 38% 0in /  0.0mm
23:34 82.8 °F /  28.2 °C 54.7 °F /  12.6 °C 29.9in /  1013.3hPa OSO 8.3mph /  13.3km/h 12.7mph /  20.4km/h 38% 0in /  0.0mm
Murcia-Puente Tocinos, España
Compliments of Weather Underground - 2.75 mb

La estación de MeteoMurcia.com, publica sus datos en los siguientes proyectos:

Weather Underground PWS IMURCIAP2 Meteoclimatic www.awekas.at

W3Counter
Web Analytics